Time;durP1;ratioP1;P1;durP2;ratioP2;P2;SDS_P1;SDS_P2;PMS_P1;PMS_P2;Temp;Humidity;BMP_temperature;BMP_pressure;BME280_temperature;BME280_humidity;BME280_pressure;Samples;Min_cycle;Max_cycle;Signal;HPM_P1;HPM_P2
2022/11/19 00:01:44;;;;;;;7.40;3.40;;;;;;;;;;5069531;28;20032;-57
2022/11/19 00:04:10;;;;;;;6.45;2.90;;;;;;;;;;5068443;28;20036;-56
2022/11/19 00:06:36;;;;;;;7.43;3.33;;;;;;;;;;5067972;28;20035;-56
2022/11/19 00:09:04;;;;;;;8.02;3.40;;;;;;;;;;5067844;28;20402;-56
2022/11/19 00:14:15;;;;;;;6.80;3.67;;;2.70;99.90;;;;;;5066646;28;20044;-55
2022/11/19 00:16:42;;;;;;;6.00;3.05;;;2.50;99.90;;;;;;5051154;28;20043;-56
2022/11/19 00:19:12;;;;;;;7.35;2.95;;;;;;;;;;5049113;28;20218;-55
2022/11/19 00:21:39;;;;;;;6.15;2.88;;;;;;;;;;5068523;28;20126;-54
2022/11/19 00:24:05;;;;;;;6.25;3.40;;;;;;;;;;5069082;28;20037;-56
2022/11/19 00:26:31;;;;;;;6.60;3.40;;;;;;;;;;5068524;28;20044;-56
2022/11/19 00:28:57;;;;;;;5.90;3.22;;;2.80;99.90;;;;;;5068149;28;20509;-55
2022/11/19 00:31:23;;;;;;;5.93;2.60;;;;;;;;;;5069049;28;20028;-56
2022/11/19 00:33:53;;;;;;;6.18;3.05;;;2.80;99.90;;;;;;5069661;28;20114;-56
2022/11/19 00:36:19;;;;;;;6.30;2.50;;;;;;;;;;5068984;28;20154;-56
2022/11/19 00:38:45;;;;;;;6.60;3.28;;;;;;;;;;5068337;28;20047;-56
2022/11/19 00:41:11;;;;;;;6.82;3.08;;;;;;;;;;5071282;28;20491;-57
2022/11/19 00:43:46;;;;;;;6.53;3.00;;;2.80;99.90;;;;;;5068670;28;20036;-57
2022/11/19 00:46:12;;;;;;;;;;;;;;;;;;5069835;28;20036;-56
2022/11/19 00:48:38;;;;;;;6.45;3.03;;;;;;;;;;5067916;28;19920;-54
2022/11/19 00:51:04;;;;;;;5.82;3.10;;;2.80;99.90;;;;;;5063937;28;20640;-57
2022/11/19 00:53:30;;;;;;;5.43;2.80;;;2.90;99.90;;;;;;5063400;28;20037;-53
2022/11/19 00:56:00;;;;;;;6.43;3.00;;;;;;;;;;5054247;28;20458;-57
2022/11/19 00:58:26;;;;;;;7.07;3.78;;;;;;;;;;5071673;28;20036;-56
2022/11/19 01:00:52;;;;;;;6.13;3.33;;;;;;;;;;5055267;28;20106;-57
2022/11/19 01:03:18;;;;;;;6.15;2.80;;;;;;;;;;5072420;28;20036;-57
2022/11/19 01:05:44;;;;;;;6.63;3.17;;;;;;;;;;5072581;28;20045;-57
2022/11/19 01:08:10;;;;;;;6.80;2.90;;;2.70;99.90;;;;;;5072082;28;20494;-56
2022/11/19 01:10:36;;;;;;;6.20;2.88;;;;;;;;;;5072612;28;20035;-56
2022/11/19 01:15:47;;;;;;;;;;;;;;;;;;5111943;28;20036;-51
2022/11/19 01:18:13;;;;;;;6.53;3.10;;;;;;;;;;5104142;28;19927;-54
2022/11/19 01:20:39;;;;;;;6.50;3.22;;;;;;;;;;5103916;28;20044;-51
2022/11/19 01:23:05;;;;;;;6.75;3.05;;;;;;;;;;5109327;28;20035;-49
2022/11/19 01:25:31;;;;;;;6.18;3.13;;;;;;;;;;5084312;28;20042;-50
2022/11/19 01:27:57;;;;;;;7.15;3.45;;;;;;;;;;5110822;28;20498;-49
2022/11/19 01:30:24;;;;;;;6.05;3.15;;;;;;;;;;5084743;28;20509;-50
2022/11/19 01:32:50;;;;;;;6.53;3.33;;;;;;;;;;5109965;28;20043;-50
2022/11/19 01:35:16;;;;;;;6.82;3.45;;;;;;;;;;5105364;28;20116;-50
2022/11/19 01:37:42;;;;;;;6.60;3.45;;;;;;;;;;5102257;28;20439;-51
2022/11/19 01:40:08;;;;;;;7.10;3.70;;;;;;;;;;5090037;28;20040;-52
2022/11/19 01:42:49;;;;;;;6.53;2.88;;;2.30;99.90;;;;;;5103030;28;20036;-51
2022/11/19 01:45:23;;;;;;;7.13;3.65;;;;;;;;;;5110210;28;20031;-51
2022/11/19 01:47:50;;;;;;;6.43;3.35;;;;;;;;;;5105433;28;20477;-53
2022/11/19 01:50:18;;;;;;;7.10;3.67;;;;;;;;;;5111333;28;20074;-52
2022/11/19 01:52:44;;;;;;;5.88;2.78;;;;;;;;;;5106142;28;20063;-54
2022/11/19 01:55:10;;;;;;;7.30;3.30;;;2.10;99.90;;;;;;5104730;28;20039;-53
2022/11/19 01:57:38;;;;;;;7.78;3.63;;;;;;;;;;5105898;28;20039;-53
2022/11/19 02:00:13;;;;;;;8.23;3.80;;;;;;;;;;5105027;28;20067;-50
2022/11/19 02:02:39;;;;;;;7.40;4.07;;;1.80;99.90;;;;;;5087765;28;20040;-50
2022/11/19 02:05:05;;;;;;;6.82;3.60;;;;;;;;;;5106473;28;20031;-53
2022/11/19 02:07:33;;;;;;;7.22;3.60;;;;;;;;;;5108192;28;20123;-53
2022/11/19 02:10:01;;;;;;;7.82;4.13;;;2.10;99.90;;;;;;5106452;28;20032;-51
2022/11/19 02:12:36;;;;;;;7.50;3.78;;;;;;;;;;5083424;28;20430;-53
2022/11/19 02:15:09;;;;;;;6.70;3.83;;;;;;;;;;5094657;28;20114;-49
2022/11/19 02:17:35;;;;;;;6.70;3.70;;;;;;;;;;5104146;28;20032;-50
2022/11/19 02:20:20;;;;;;;7.45;3.38;;;;;;;;;;5102670;28;20063;-51
2022/11/19 02:22:46;;;;;;;7.47;3.65;;;;;;;;;;5105601;28;20089;-53
2022/11/19 02:25:12;;;;;;;7.57;3.85;;;;;;;;;;5104520;28;20512;-52
2022/11/19 02:27:47;;;;;;;7.75;3.97;;;;;;;;;;5089198;28;20047;-48
2022/11/19 02:30:16;;;;;;;7.63;3.75;;;;;;;;;;5082135;28;20089;-52
2022/11/19 02:33:07;;;;;;;7.70;3.42;;;2.20;99.90;;;;;;5090449;28;20533;-48
2022/11/19 02:35:46;;;;;;;9.10;4.30;;;;;;;;;;5098316;28;20468;-49
2022/11/19 02:38:18;;;;;;;8.27;4.13;;;;;;;;;;5104841;28;20037;-49
2022/11/19 02:40:47;;;;;;;7.97;4.20;;;;;;;;;;5103106;28;20043;-49
2022/11/19 02:43:18;;;;;;;7.10;3.70;;;;;;;;;;5106724;28;20040;-53
2022/11/19 02:45:51;;;;;;;7.70;3.78;;;;;;;;;;5084420;28;20093;-49
2022/11/19 02:48:20;;;;;;;7.07;4.22;;;;;;;;;;5084541;28;20556;-51
2022/11/19 02:50:48;;;;;;;7.97;3.78;;;;;;;;;;5105706;28;20081;-53
2022/11/19 02:53:14;;;;;;;8.52;4.25;;;1.20;99.90;;;;;;5104635;28;20392;-52
2022/11/19 02:55:40;;;;;;;7.75;3.80;;;;;;;;;;5106584;28;20115;-56
2022/11/19 03:06:35;;;;;;;7.80;4.15;;;;;;;;;;5088773;28;20048;-49
2022/11/19 03:09:01;;;;;;;7.47;4.00;;;;;;;;;;5101932;28;20101;-48
2022/11/19 03:11:31;;;;;;;8.98;4.57;;;;;;;;;;5106505;28;20040;-50
2022/11/19 03:16:56;;;;;;;8.90;4.05;;;;;;;;;;5088316;28;20107;-50
2022/11/19 03:19:22;;;;;;;8.27;4.57;;;;;;;;;;5098373;28;20036;-48
2022/11/19 03:21:54;;;;;;;9.15;4.18;;;;;;;;;;5086574;28;20047;-49
2022/11/19 03:24:23;;;;;;;9.32;4.50;;;;;;;;;;5101179;28;20594;-50
2022/11/19 03:27:15;;;;;;;8.25;4.32;;;;;;;;;;5105155;28;20109;-50
2022/11/19 03:29:43;;;;;;;8.20;4.50;;;;;;;;;;5097036;28;20585;-48
2022/11/19 03:32:16;;;;;;;9.00;4.47;;;;;;;;;;5106930;28;20036;-52
2022/11/19 03:34:45;;;;;;;9.07;4.47;;;0.30;99.90;;;;;;5101540;28;20081;-51
2022/11/19 03:37:12;;;;;;;8.80;4.50;;;;;;;;;;5101145;28;20031;-50
2022/11/19 03:39:38;;;;;;;8.23;4.47;;;;;;;;;;5103615;28;20027;-51
2022/11/19 03:42:07;;;;;;;8.63;4.60;;;;;;;;;;5101491;28;20032;-52
2022/11/19 03:44:45;;;;;;;8.95;4.60;;;;;;;;;;5105501;28;20032;-50
2022/11/19 03:47:18;;;;;;;7.75;4.43;;;0.00;99.90;;;;;;5096680;28;20442;-49
2022/11/19 03:49:47;;;;;;;10.98;4.70;;;0.50;99.90;;;;;;5106599;28;20271;-49
2022/11/19 03:52:20;;;;;;;10.80;5.55;;;0.00;99.90;;;;;;5098368;28;20040;-50
2022/11/19 03:54:46;;;;;;;7.88;4.25;;;;;;;;;;5106135;28;20039;-49
2022/11/19 03:57:13;;;;;;;10.25;4.75;;;;;;;;;;5098261;28;20043;-49
2022/11/19 03:59:39;;;;;;;7.88;4.38;;;;;;;;;;5105979;28;20168;-49
2022/11/19 04:02:09;;;;;;;8.75;4.53;;;;;;;;;;5101599;28;20039;-52
2022/11/19 04:04:36;;;;;;;8.77;4.20;;;;;;;;;;5106546;28;20057;-52
2022/11/19 04:07:20;;;;;;;9.95;5.03;;;;;;;;;;5102891;28;20040;-50
2022/11/19 04:09:46;;;;;;;8.93;4.40;;;0.10;99.90;;;;;;5082770;28;20044;-52
2022/11/19 04:12:30;;;;;;;9.82;4.97;;;;;;;;;;5102398;28;20024;-51
2022/11/19 04:14:56;;;;;;;11.45;5.65;;;-0.10;99.90;;;;;;5091383;28;20039;-50
2022/11/19 04:17:23;;;;;;;9.00;4.68;;;;;;;;;;5103494;28;20035;-52
2022/11/19 04:19:49;;;;;;;10.77;4.50;;;0.00;99.90;;;;;;5099828;28;20501;-52
2022/11/19 04:22:15;;;;;;;9.35;5.15;;;;;;;;;;5105199;28;20043;-51
2022/11/19 04:24:41;;;;;;;9.40;4.53;;;;;;;;;;5101166;28;20036;-53
2022/11/19 04:27:08;;;;;;;9.07;4.95;;;;;;;;;;5105759;28;20039;-52
2022/11/19 04:29:33;;;;;;;8.10;4.45;;;-0.20;99.90;;;;;;5084818;28;20039;-50
2022/11/19 04:32:01;;;;;;;9.70;5.10;;;;;;;;;;5108416;28;20069;-52
2022/11/19 04:34:27;;;;;;;9.27;4.57;;;;;;;;;;5108520;28;20070;-50
2022/11/19 04:36:53;;;;;;;8.38;4.55;;;;;;;;;;5102795;28;20063;-52
2022/11/19 04:39:18;;;;;;;9.50;4.55;;;-0.40;99.90;;;;;;5109106;28;20035;-48
2022/11/19 04:41:44;;;;;;;10.35;5.30;;;;;;;;;;5087240;28;20489;-51
2022/11/19 04:44:10;;;;;;;9.23;4.60;;;-0.50;99.90;;;;;;5109881;28;20038;-49
2022/11/19 04:46:36;;;;;;;8.18;4.63;;;;;;;;;;5106662;28;20027;-51
2022/11/19 04:49:02;;;;;;;8.77;4.97;;;;;;;;;;5109981;28;20073;-49
2022/11/19 04:51:28;;;;;;;10.65;4.50;;;;;;;;;;5108004;28;20032;-54
2022/11/19 04:53:54;;;;;;;10.13;5.38;;;;;;;;;;5084862;28;20051;-48
2022/11/19 04:56:20;;;;;;;9.32;4.85;;;;;;;;;;5090693;28;20027;-51
2022/11/19 04:58:46;;;;;;;10.30;4.82;;;-0.60;99.90;;;;;;5103080;28;20119;-49
2022/11/19 05:01:13;;;;;;;10.02;5.30;;;-0.60;99.90;;;;;;5109631;28;20397;-51
2022/11/19 05:03:38;;;;;;;10.10;4.82;;;-0.70;99.90;;;;;;5086500;28;20036;-49
2022/11/19 05:06:04;;;;;;;9.93;4.47;;;;;;;;;;5110291;28;20408;-52
2022/11/19 05:08:30;;;;;;;9.80;5.32;;;;;;;;;;5107077;28;20157;-54
2022/11/19 05:10:56;;;;;;;9.60;5.38;;;-0.40;99.90;;;;;;5103198;28;20036;-51
2022/11/19 05:13:22;;;;;;;8.13;4.45;;;;;;;;;;5107780;28;20038;-52
2022/11/19 05:15:48;;;;;;;9.02;4.75;;;;;;;;;;5091854;28;20104;-54
2022/11/19 05:18:14;;;;;;;10.75;5.13;;;;;;;;;;5101134;28;20040;-49
2022/11/19 05:20:40;;;;;;;10.38;5.28;;;;;;;;;;5090713;28;20049;-53
2022/11/19 05:23:06;;;;;;;9.25;5.07;;;;;;;;;;5104370;28;20444;-52
2022/11/19 05:25:32;;;;;;;8.63;4.68;;;-0.60;99.90;;;;;;5108809;28;20040;-51
2022/11/19 05:28:00;;;;;;;8.88;5.22;;;-0.70;99.90;;;;;;5106631;28;20039;-50
2022/11/19 05:30:26;;;;;;;9.95;5.03;;;;;;;;;;5107962;28;20038;-52
2022/11/19 05:32:52;;;;;;;10.07;5.35;;;;;;;;;;5109078;28;20032;-55
2022/11/19 05:35:18;;;;;;;8.82;4.75;;;;;;;;;;5100504;28;20032;-54
2022/11/19 05:37:44;;;;;;;10.25;4.78;;;;;;;;;;5109004;28;20048;-50
2022/11/19 05:40:11;;;;;;;8.77;4.60;;;;;;;;;;5102521;28;20383;-49
2022/11/19 05:42:36;;;;;;;8.50;4.68;;;-0.90;99.90;;;;;;5107903;28;20044;-49
2022/11/19 05:45:03;;;;;;;9.27;5.00;;;;;;;;;;5105788;28;20047;-53
2022/11/19 05:47:29;;;;;;;9.05;4.90;;;;;;;;;;5089227;28;20066;-53
2022/11/19 05:49:55;;;;;;;9.05;4.45;;;;;;;;;;5108319;28;20032;-53
2022/11/19 05:52:21;;;;;;;7.90;4.60;;;;;;;;;;5100926;28;20032;-50
2022/11/19 05:54:47;;;;;;;9.38;4.90;;;;;;;;;;5109502;28;20061;-50
2022/11/19 05:57:12;;;;;;;9.63;5.00;;;-0.50;99.90;;;;;;5101897;28;20127;-49
2022/11/19 05:59:38;;;;;;;9.85;5.18;;;-0.70;99.90;;;;;;5109079;28;20489;-52
2022/11/19 06:02:04;;;;;;;9.30;4.88;;;;;;;;;;5105417;28;20050;-52
2022/11/19 06:04:30;;;;;;;10.30;4.85;;;;;;;;;;5108279;28;20035;-54
2022/11/19 06:06:56;;;;;;;9.63;4.90;;;-0.70;99.90;;;;;;5107498;28;20104;-52
2022/11/19 06:09:25;;;;;;;8.45;4.93;;;;;;;;;;5100574;28;20509;-51
2022/11/19 06:11:54;;;;;;;9.20;4.75;;;;;;;;;;5109762;28;20111;-50
2022/11/19 06:14:22;;;;;;;9.18;5.05;;;-1.00;99.90;;;;;;5101427;28;20378;-50
2022/11/19 06:16:55;;;;;;;9.23;4.65;;;;;;;;;;5105884;28;20552;-55
2022/11/19 06:19:22;;;;;;;8.20;4.47;;;;;;;;;;5102594;28;20071;-50
2022/11/19 06:21:48;;;;;;;9.25;4.93;;;;;;;;;;5106855;28;20126;-49
2022/11/19 06:24:16;;;;;;;7.70;4.13;;;;;;;;;;5086278;28;20039;-51
2022/11/19 06:26:42;;;;;;;10.90;5.35;;;-0.60;99.90;;;;;;5106522;28;20036;-49
2022/11/19 06:29:09;;;;;;;8.73;4.97;;;;;;;;;;5087119;28;20118;-49
2022/11/19 06:31:35;;;;;;;10.88;5.40;;;;;;;;;;5107980;28;20081;-50
2022/11/19 06:34:01;;;;;;;8.57;4.78;;;;;;;;;;5106461;28;20121;-51
2022/11/19 06:36:28;;;;;;;9.13;4.50;;;-0.90;99.90;;;;;;5101240;28;20040;-53
2022/11/19 06:39:03;;;;;;;9.57;5.20;;;;;;;;;;5097672;28;20050;-53
2022/11/19 06:41:29;;;;;;;10.00;5.13;;;;;;;;;;5102974;28;20120;-53
2022/11/19 06:43:55;;;;;;;8.55;4.53;;;;;;;;;;5107513;28;20051;-54
2022/11/19 06:46:21;;;;;;;10.00;5.07;;;;;;;;;;5104077;28;20552;-51
2022/11/19 06:48:47;;;;;;;9.55;4.95;;;;;;;;;;5106099;28;20051;-53
2022/11/19 06:51:16;;;;;;;8.10;4.22;;;;;;;;;;5105063;28;20121;-52
2022/11/19 06:53:42;;;;;;;9.07;4.40;;;;;;;;;;5082974;28;20046;-49
2022/11/19 06:56:08;;;;;;;10.30;5.15;;;;;;;;;;5103205;28;20118;-50
2022/11/19 06:58:35;;;;;;;10.00;5.10;;;;;;;;;;5098401;28;20074;-50
2022/11/19 07:01:01;;;;;;;9.90;4.70;;;;;;;;;;5105173;28;20540;-49
2022/11/19 07:03:27;;;;;;;9.98;4.72;;;;;;;;;;5103520;28;20171;-52
2022/11/19 07:06:04;;;;;;;10.50;5.32;;;-1.00;99.90;;;;;;5089567;28;20035;-51
2022/11/19 07:08:33;;;;;;;8.85;4.85;;;;;;;;;;5105055;28;20438;-49
2022/11/19 07:11:24;;;;;;;9.70;5.30;;;;;;;;;;5074613;28;20067;-52
2022/11/19 07:13:56;;;;;;;11.50;5.30;;;;;;;;;;5191755;22;20057;-57
2022/11/19 07:16:22;;;;;;;10.90;5.53;;;;;;;;;;5130524;27;20401;-56
2022/11/19 07:18:48;;;;;;;8.57;4.60;;;-1.20;99.90;;;;;;5119283;27;20089;-54
2022/11/19 07:21:13;;;;;;;9.05;4.55;;;-1.10;99.90;;;;;;5115848;27;20436;-56
2022/11/19 07:23:39;;;;;;;9.55;5.03;;;;;;;;;;5120341;27;20046;-55
2022/11/19 07:26:05;;;;;;;9.75;5.00;;;;;;;;;;5112655;27;20039;-56
2022/11/19 07:28:33;;;;;;;8.77;4.78;;;-0.80;99.90;;;;;;5118646;27;20460;-53
2022/11/19 07:31:03;;;;;;;10.07;5.05;;;-1.00;99.90;;;;;;5111596;27;20405;-55
2022/11/19 07:33:28;;;;;;;8.93;4.80;;;-1.00;99.90;;;;;;5119273;27;20118;-56
2022/11/19 07:35:57;;;;;;;8.98;5.22;;;-0.90;99.90;;;;;;5131389;27;20114;-55
2022/11/19 07:38:25;;;;;;;8.25;4.68;;;-1.00;99.90;;;;;;5112028;27;20408;-55
2022/11/19 07:40:54;;;;;;;9.48;5.00;;;;;;;;;;5100018;28;20039;-56
2022/11/19 07:43:21;;;;;;;11.27;4.78;;;;;;;;;;5093707;28;20107;-56
2022/11/19 07:45:47;;;;;;;8.38;4.60;;;;;;;;;;5112339;28;20039;-53
2022/11/19 07:48:13;;;;;;;9.70;5.03;;;;;;;;;;5108094;28;20043;-55
2022/11/19 07:50:40;;;;;;;9.63;5.60;;;;;;;;;;5118172;27;20047;-56
2022/11/19 07:53:06;;;;;;;9.75;4.20;;;-0.90;99.90;;;;;;5125130;27;20038;-55
2022/11/19 07:55:33;;;;;;;8.25;4.65;;;-0.80;99.90;;;;;;5122525;27;20109;-56
2022/11/19 07:57:59;;;;;;;8.82;4.80;;;-0.80;99.90;;;;;;5124003;28;20066;-56
2022/11/19 08:00:25;;;;;;;9.27;4.72;;;;;;;;;;5121212;27;20066;-56
2022/11/19 08:02:51;;;;;;;9.15;4.85;;;;;;;;;;5126064;27;20047;-56
2022/11/19 08:05:16;;;;;;;9.65;4.70;;;-0.70;99.90;;;;;;5121943;27;20433;-56
2022/11/19 08:07:43;;;;;;;8.50;4.45;;;;;;;;;;5126743;27;20091;-56
2022/11/19 08:10:09;;;;;;;8.85;4.68;;;-0.50;99.90;;;;;;5128352;27;20531;-55
2022/11/19 08:12:35;;;;;;;10.65;5.55;;;-0.90;99.90;;;;;;5129224;27;20035;-56
2022/11/19 08:15:01;;;;;;;9.05;4.70;;;;;;;;;;5109195;27;20114;-56
2022/11/19 08:20:15;;;;;;;10.57;5.00;;;;;;;;;;5124879;27;20072;-56
2022/11/19 08:22:41;;;;;;;9.73;4.40;;;;;;;;;;5129480;27;20043;-56
2022/11/19 08:25:07;;;;;;;7.43;4.30;;;-0.50;99.90;;;;;;5133350;27;20105;-54
2022/11/19 08:27:33;;;;;;;8.55;4.28;;;-0.40;99.90;;;;;;5125279;27;20035;-56
2022/11/19 08:29:59;;;;;;;9.02;4.82;;;-0.40;99.90;;;;;;5133694;27;20083;-56
2022/11/19 08:32:25;;;;;;;10.30;5.63;;;;;;;;;;5117433;27;20434;-56
2022/11/19 08:34:51;;;;;;;9.50;5.45;;;;;;;;;;5125916;27;20051;-56
2022/11/19 08:37:17;;;;;;;10.98;6.30;;;;;;;;;;5138893;27;20139;-56
2022/11/19 08:39:43;;;;;;;11.23;6.78;;;;;;;;;;5126281;27;20527;-56
2022/11/19 08:44:54;;;;;;;10.30;6.22;;;;;;;;;;5118349;27;20118;-56
2022/11/19 08:47:20;;;;;;;9.60;5.43;;;-0.20;99.90;;;;;;5136248;27;20039;-56
2022/11/19 08:49:46;;;;;;;10.73;5.80;;;;;;;;;;5108444;27;20043;-56
2022/11/19 08:52:13;;;;;;;9.60;5.22;;;;;;;;;;5128105;27;20122;-56
2022/11/19 08:54:39;;;;;;;10.90;5.88;;;-0.20;99.90;;;;;;5119445;27;20071;-56
2022/11/19 08:57:08;;;;;;;9.38;5.20;;;;;;;;;;5119115;27;20489;-56
2022/11/19 08:59:36;;;;;;;9.32;6.10;;;-0.10;99.90;;;;;;5127581;27;20506;-54
2022/11/19 09:02:02;;;;;;;9.70;5.40;;;-0.20;99.90;;;;;;5124957;27;20113;-54
2022/11/19 09:04:28;;;;;;;9.85;6.00;;;;;;;;;;5135003;27;20533;-55
2022/11/19 09:06:54;;;;;;;9.93;5.57;;;;;;;;;;5114745;27;20138;-56
2022/11/19 09:09:19;;;;;;;9.00;4.72;;;-0.10;99.90;;;;;;5136656;27;20035;-55
2022/11/19 09:11:45;;;;;;;10.05;5.30;;;;;;;;;;5115491;27;20046;-55
2022/11/19 09:14:11;;;;;;;10.95;5.13;;;;;;;;;;5128216;27;20504;-55
2022/11/19 09:16:38;;;;;;;9.05;4.95;;;;;;;;;;5125261;27;20062;-52
2022/11/19 09:19:04;;;;;;;10.50;5.18;;;;;;;;;;5107198;28;20047;-53
2022/11/19 09:21:36;;;;;;;9.02;5.25;;;;;;;;;;5121049;27;20035;-52
2022/11/19 09:24:02;;;;;;;10.15;5.95;;;;;;;;;;5123285;27;20060;-55
2022/11/19 09:26:28;;;;;;;11.68;7.30;;;;;;;;;;5118927;27;20042;-55
2022/11/19 09:28:54;;;;;;;10.10;5.85;;;;;;;;;;5111982;27;20039;-56
2022/11/19 09:31:20;;;;;;;10.52;5.38;;;;;;;;;;5114436;27;20485;-53
2022/11/19 09:33:48;;;;;;;9.52;5.30;;;0.60;99.90;;;;;;5096224;27;20036;-54
2022/11/19 09:36:15;;;;;;;8.48;4.82;;;;;;;;;;5128836;27;20110;-54
2022/11/19 09:38:41;;;;;;;9.77;5.18;;;;;;;;;;5089364;27;20039;-55
2022/11/19 09:41:16;;;;;;;8.63;4.28;;;;;;;;;;5112787;27;20077;-54
2022/11/19 09:44:03;;;;;;;10.15;5.20;;;0.50;99.90;;;;;;5123864;27;20411;-56
2022/11/19 09:46:48;;;;;;;10.43;5.20;;;;;;;;;;5117200;27;20047;-56
2022/11/19 09:49:18;;;;;;;11.30;5.18;;;;;;;;;;5120095;27;20349;-56
2022/11/19 09:51:50;;;;;;;10.02;6.30;;;;;;;;;;5119543;27;20035;-55
2022/11/19 09:54:18;;;;;;;9.73;5.40;;;1.10;99.90;;;;;;5117381;27;20042;-56
2022/11/19 09:56:46;;;;;;;10.32;5.93;;;0.50;99.90;;;;;;5118103;27;20428;-56
2022/11/19 09:59:21;;;;;;;9.18;5.18;;;;;;;;;;5099670;28;20067;-56
2022/11/19 10:01:47;;;;;;;10.27;5.55;;;;;;;;;;5123756;27;20146;-56
2022/11/19 10:04:15;;;;;;;9.32;5.22;;;0.50;99.90;;;;;;5110543;27;20039;-55
2022/11/19 10:07:05;;;;;;;28.67;21.85;;;;;;;;;;5131416;27;20043;-56
2022/11/19 10:09:40;;;;;;;12.80;8.82;;;1.40;99.90;;;;;;5117658;27;20047;-56
2022/11/19 10:12:06;;;;;;;;;;;;;;;;;;5119257;27;20542;-56
2022/11/19 10:14:50;;;;;;;70.75;35.85;;;;;;;;;;5127797;27;20011;-56
2022/11/19 10:17:41;;;;;;;13.23;8.68;;;1.20;99.90;;;;;;5114467;27;20058;-55
2022/11/19 10:20:26;;;;;;;13.70;10.32;;;;;;;;;;5119754;27;20485;-56
2022/11/19 10:22:52;;;;;;;8.93;5.72;;;;;;;;;;5119192;27;20081;-56
2022/11/19 10:25:21;;;;;;;8.27;4.55;;;;;;;;;;5119470;27;20497;-56
2022/11/19 10:28:00;;;;;;;8.20;4.70;;;1.20;99.90;;;;;;5126987;27;20097;-56
2022/11/19 10:30:30;;;;;;;9.40;4.68;;;;;;;;;;5117464;27;20067;-55
2022/11/19 10:33:03;;;;;;;9.65;5.15;;;1.50;99.90;;;;;;5121966;27;20036;-55
2022/11/19 10:35:32;;;;;;;10.13;4.85;;;;;;;;;;5139990;27;20523;-56
2022/11/19 10:38:04;;;;;;;8.13;4.43;;;1.80;99.90;;;;;;5116878;27;20070;-56
2022/11/19 10:40:34;;;;;;;8.73;5.10;;;;;;;;;;5126843;27;20061;-56
2022/11/19 10:43:12;;;;;;;9.70;4.90;;;;;;;;;;5105656;27;20489;-53
2022/11/19 10:45:38;;;;;;;9.00;4.93;;;;;;;;;;5123949;27;20480;-56
2022/11/19 10:48:04;;;;;;;9.75;5.07;;;;;;;;;;5124966;27;20038;-56
2022/11/19 10:50:31;;;;;;;9.02;4.97;;;;;;;;;;5104568;27;20492;-55
2022/11/19 10:53:17;;;;;;;9.20;4.50;;;;;;;;;;5121894;27;20036;-53
2022/11/19 10:55:49;;;;;;;7.72;4.50;;;;;;;;;;5112726;27;20054;-55
2022/11/19 10:58:25;;;;;;;7.95;4.40;;;;;;;;;;5122935;27;20062;-54
2022/11/19 11:01:01;;;;;;;9.98;4.55;;;2.40;99.90;;;;;;5135111;27;20031;-56
2022/11/19 11:03:30;;;;;;;9.20;3.70;;;;;;;;;;5119741;27;20039;-56
2022/11/19 11:05:58;;;;;;;7.97;4.18;;;;;;;;;;5127257;27;20148;-56
2022/11/19 11:08:24;;;;;;;8.35;4.50;;;2.20;99.90;;;;;;5122089;27;20577;-56
2022/11/19 11:10:50;;;;;;;9.23;5.80;;;;;;;;;;5138125;27;20065;-56
2022/11/19 11:16:15;;;;;;;7.13;4.18;;;;;;;;;;5124063;27;20511;-56
2022/11/19 11:18:41;;;;;;;7.30;3.75;;;2.40;99.90;;;;;;5121405;27;20095;-56
2022/11/19 11:21:10;;;;;;;8.02;4.45;;;;;;;;;;5131519;27;20035;-55
2022/11/19 11:23:56;;;;;;;7.90;4.90;;;;;;;;;;5136344;27;20031;-56
2022/11/19 11:26:27;;;;;;;8.07;4.50;;;2.30;99.90;;;;;;5117336;27;20362;-56
2022/11/19 11:29:07;;;;;;;7.00;3.55;;;2.60;99.90;;;;;;5116899;27;20043;-56
2022/11/19 11:31:41;;;;;;;7.28;3.80;;;2.60;99.90;;;;;;5125223;27;20042;-56
2022/11/19 11:34:26;;;;;;;8.00;3.60;;;;;;;;;;5121448;27;20066;-56
2022/11/19 11:36:53;;;;;;;6.28;3.33;;;;;;;;;;5128507;27;20543;-56
2022/11/19 11:39:38;;;;;;;7.20;3.42;;;;;;;;;;5111145;27;20043;-56
2022/11/19 11:42:11;;;;;;;6.93;3.50;;;3.70;99.90;;;;;;5110583;27;20048;-53
2022/11/19 11:44:38;;;;;;;6.22;3.00;;;;;;;;;;5113920;27;20069;-56
2022/11/19 11:47:10;;;;;;;7.32;3.90;;;;;;;;;;5127367;27;20200;-56
2022/11/19 11:49:38;;;;;;;5.70;3.28;;;;;;;;;;5128368;27;20035;-56
2022/11/19 11:52:24;;;;;;;7.65;4.03;;;4.00;99.90;;;;;;5112520;27;20520;-55
2022/11/19 11:55:14;;;;;;;8.02;4.25;;;4.20;99.90;;;;;;5096821;27;20204;-56
2022/11/19 11:58:01;;;;;;;7.55;3.65;;;4.60;99.90;;;;;;5125379;27;20556;-56
2022/11/19 12:00:32;;;;;;;6.78;3.20;;;;;;;;;;5137656;27;20089;-56
2022/11/19 12:03:03;;;;;;;8.07;3.85;;;;;;;;;;5129611;27;20488;-56
2022/11/19 12:05:50;;;;;;;8.13;3.80;;;;;;;;;;5122233;27;20598;-56
2022/11/19 12:08:41;;;;;;;6.35;3.47;;;5.20;99.90;;;;;;5133322;27;20507;-55
2022/11/19 12:11:13;;;;;;;6.95;3.42;;;6.00;99.90;;;;;;5134983;27;20114;-56
2022/11/19 12:13:47;;;;;;;7.72;3.85;;;;;;;;;;5139021;27;20084;-56
2022/11/19 12:16:34;;;;;;;7.30;3.70;;;5.90;99.90;;;;;;5130722;27;20070;-55
2022/11/19 12:19:15;;;;;;;7.13;3.38;;;;;;;;;;5125021;27;20533;-54
2022/11/19 12:22:04;;;;;;;6.28;3.05;;;7.40;99.90;;;;;;5125557;27;20443;-56
2022/11/19 12:24:40;;;;;;;7.95;3.20;;;9.60;99.90;;;;;;5127874;27;20131;-54
2022/11/19 12:27:11;;;;;;;6.68;3.38;;;11.40;99.90;;;;;;5129268;27;20049;-55
2022/11/19 12:29:58;;;;;;;6.43;3.40;;;12.60;99.90;;;;;;5118241;27;20048;-56
2022/11/19 12:32:26;;;;;;;6.28;3.08;;;14.90;99.90;;;;;;5122861;27;20031;-56
2022/11/19 12:35:11;;;;;;;6.43;3.38;;;15.40;99.90;;;;;;5122241;27;20129;-55
2022/11/19 12:38:01;;;;;;;8.02;3.20;;;17.50;99.90;;;;;;5130137;27;20037;-53
2022/11/19 12:40:49;;;;;;;6.35;3.58;;;18.10;99.90;;;;;;5106285;27;20043;-56
2022/11/19 12:43:36;;;;;;;5.70;2.70;;;19.00;99.90;;;;;;5134834;27;20027;-56
2022/11/19 12:46:45;;;;;;;7.70;3.35;;;21.50;99.90;;;;;;5135306;27;20030;-56
2022/11/19 12:49:28;;;;;;;5.25;2.70;;;21.30;99.90;;;;;;5094568;28;20047;-54
2022/11/19 12:52:21;;;;;;;6.10;2.88;;;21.30;99.90;;;;;;5126603;27;20035;-53
2022/11/19 12:55:32;;;;;;;5.47;2.63;;;22.50;99.90;;;;;;5127098;27;20026;-53
2022/11/19 12:58:08;;;;;;;5.43;2.70;;;22.00;99.90;;;;;;5124445;27;20496;-53
2022/11/19 13:00:36;;;;;;;5.55;3.15;;;22.40;99.90;;;;;;5119298;27;20405;-56
2022/11/19 13:03:10;;;;;;;4.82;2.60;;;23.50;99.90;;;;;;5135095;27;20062;-55
2022/11/19 13:06:11;;;;;;;6.72;3.78;;;23.60;99.90;;;;;;5137466;27;20073;-53
2022/11/19 13:08:42;;;;;;;5.75;3.20;;;24.00;99.90;;;;;;5110623;27;20137;-53
2022/11/19 13:11:37;;;;;;;8.27;4.20;;;24.40;99.90;;;;;;5121335;27;20419;-56
2022/11/19 13:14:09;;;;;;;8.90;7.03;;;24.40;90.30;;;;;;5153888;22;20044;-61
2022/11/19 13:16:35;;;;;;;6.30;3.38;;;24.30;99.90;;;;;;5089287;28;20040;-62
2022/11/19 13:19:24;;;;;;;5.80;3.22;;;25.40;96.90;;;;;;5085744;28;20049;-60
2022/11/19 13:22:04;;;;;;;7.55;3.30;;;24.70;95.50;;;;;;5083726;28;20095;-62
2022/11/19 13:24:42;;;;;;;5.55;3.13;;;;;;;;;;5067559;28;20044;-61
2022/11/19 13:27:14;;;;;;;6.20;3.83;;;25.60;96.30;;;;;;5065216;28;20097;-62
2022/11/19 13:29:45;;;;;;;6.63;3.58;;;25.70;91.90;;;;;;5087944;28;20554;-62
2022/11/19 13:32:21;;;;;;;6.20;3.33;;;26.00;93.70;;;;;;5077905;28;20104;-62
2022/11/19 13:35:11;;;;;;;5.55;2.85;;;24.50;90.50;;;;;;5059617;28;20037;-62
2022/11/19 13:38:07;;;;;;;5.20;2.97;;;22.50;89.10;;;;;;5068356;28;20131;-62
2022/11/19 13:40:44;;;;;;;5.75;3.20;;;21.20;82.20;;;;;;5076800;28;20062;-62
2022/11/19 13:46:11;;;;;;;6.97;3.65;;;19.30;86.80;;;;;;5072162;28;20051;-62
2022/11/19 13:48:49;;;;;;;29.13;23.77;;;18.30;93.30;;;;;;5068024;28;20040;-62
2022/11/19 13:51:23;;;;;;;7.07;3.78;;;17.90;94.50;;;;;;5062961;28;20570;-61
2022/11/19 13:53:49;;;;;;;5.72;2.95;;;17.90;97.10;;;;;;5070512;28;20460;-61
2022/11/19 13:56:16;;;;;;;6.45;2.72;;;16.80;97.80;;;;;;5062394;28;20064;-62
2022/11/19 13:58:54;;;;;;;6.13;3.17;;;15.40;98.20;;;;;;5062977;28;20378;-61
2022/11/19 14:01:51;;;;;;;6.10;3.10;;;15.00;96.40;;;;;;5080143;28;20126;-61
2022/11/19 14:04:39;;;;;;;6.47;3.85;;;14.80;97.70;;;;;;5068582;28;20646;-62
2022/11/19 14:07:38;;;;;;;6.47;3.35;;;14.70;99.90;;;;;;5048573;28;20045;-61
2022/11/19 14:10:27;;;;;;;6.15;3.22;;;13.80;99.80;;;;;;5050504;28;20047;-61
2022/11/19 14:13:14;;;;;;;6.60;3.17;;;13.60;99.90;;;;;;5075503;28;20096;-62
2022/11/19 14:27:16;;;;;;;6.25;3.10;;;;;;;;;;5060304;28;20122;-61
2022/11/19 14:29:45;;;;;;;6.93;4.35;;;;;;;;;;5057944;28;20041;-61
2022/11/19 14:32:11;;;;;;;5.72;3.00;;;9.70;99.90;;;;;;5072579;28;20036;-61
2022/11/19 14:35:01;;;;;;;5.85;3.00;;;9.80;99.90;;;;;;5069285;28;20036;-61
2022/11/19 14:37:33;;;;;;;7.28;4.05;;;8.40;99.90;;;;;;5066494;28;20398;-61
2022/11/19 14:40:07;;;;;;;6.20;3.63;;;8.40;99.90;;;;;;5077747;28;20408;-61
2022/11/19 14:44:06;;;;;;;7.32;3.80;;;;;;;;;;5058190;28;20036;-61
2022/11/19 14:45:19;;;;;;;7.20;3.95;;;;;;;;;;5068277;28;20044;-61
2022/11/19 14:47:46;;;;;;;7.53;3.42;;;8.10;99.90;;;;;;5072524;28;20087;-61
2022/11/19 14:50:33;;;;;;;7.60;3.95;;;;;;;;;;5070316;28;20093;-61
2022/11/19 14:53:00;;;;;;;7.93;3.92;;;8.00;99.90;;;;;;5053902;28;20041;-61
2022/11/19 14:55:31;;;;;;;7.53;4.15;;;7.30;99.90;;;;;;5074057;28;20117;-61
2022/11/19 14:58:20;;;;;;;7.78;4.13;;;7.40;99.90;;;;;;5061382;28;20454;-62